sensor_id;sensor_type;location;lat;lon;timestamp;P1;durP1;ratioP1;P2;durP2;ratioP2
505;SDS011;551;48.524;9.056;2022-10-16T00:00:35;4.20;;;3.20;;
505;SDS011;551;48.524;9.056;2022-10-16T00:03:05;3.67;;;2.87;;
505;SDS011;551;48.524;9.056;2022-10-16T00:05:31;4.37;;;2.70;;
505;SDS011;551;48.524;9.056;2022-10-16T00:07:58;3.53;;;3.10;;
505;SDS011;551;48.524;9.056;2022-10-16T00:10:23;3.40;;;2.30;;
505;SDS011;551;48.524;9.056;2022-10-16T00:12:49;2.60;;;2.40;;
505;SDS011;551;48.524;9.056;2022-10-16T00:15:14;3.40;;;2.73;;
505;SDS011;551;48.524;9.056;2022-10-16T00:17:40;6.73;;;2.83;;
505;SDS011;551;48.524;9.056;2022-10-16T00:20:06;3.67;;;2.73;;
505;SDS011;551;48.524;9.056;2022-10-16T00:22:32;3.33;;;2.63;;
505;SDS011;551;48.524;9.056;2022-10-16T00:24:58;4.30;;;2.77;;
505;SDS011;551;48.524;9.056;2022-10-16T00:27:23;6.50;;;3.13;;
505;SDS011;551;48.524;9.056;2022-10-16T00:29:49;3.40;;;2.83;;
505;SDS011;551;48.524;9.056;2022-10-16T00:32:16;4.50;;;2.50;;
505;SDS011;551;48.524;9.056;2022-10-16T00:34:42;3.50;;;2.70;;
505;SDS011;551;48.524;9.056;2022-10-16T00:37:07;4.03;;;2.80;;
505;SDS011;551;48.524;9.056;2022-10-16T00:39:33;3.50;;;3.20;;
505;SDS011;551;48.524;9.056;2022-10-16T00:41:58;5.40;;;2.60;;
505;SDS011;551;48.524;9.056;2022-10-16T00:44:44;2.60;;;2.40;;
505;SDS011;551;48.524;9.056;2022-10-16T00:47:22;8.07;;;3.20;;
505;SDS011;551;48.524;9.056;2022-10-16T00:49:53;5.50;;;2.50;;
505;SDS011;551;48.524;9.056;2022-10-16T00:52:25;5.33;;;2.53;;
505;SDS011;551;48.524;9.056;2022-10-16T00:54:51;4.20;;;3.10;;
505;SDS011;551;48.524;9.056;2022-10-16T00:57:20;7.50;;;2.87;;
505;SDS011;551;48.524;9.056;2022-10-16T00:59:46;4.40;;;2.70;;
505;SDS011;551;48.524;9.056;2022-10-16T01:02:12;3.03;;;2.33;;
505;SDS011;551;48.524;9.056;2022-10-16T01:04:50;4.60;;;2.70;;
505;SDS011;551;48.524;9.056;2022-10-16T01:10:06;5.87;;;2.80;;
505;SDS011;551;48.524;9.056;2022-10-16T01:12:39;4.10;;;2.33;;
505;SDS011;551;48.524;9.056;2022-10-16T01:17:51;2.90;;;2.20;;
505;SDS011;551;48.524;9.056;2022-10-16T01:20:35;7.03;;;2.33;;
505;SDS011;551;48.524;9.056;2022-10-16T01:28:54;4.53;;;2.77;;
505;SDS011;551;48.524;9.056;2022-10-16T01:31:25;2.60;;;2.40;;
505;SDS011;551;48.524;9.056;2022-10-16T01:34:01;3.93;;;2.47;;
505;SDS011;551;48.524;9.056;2022-10-16T01:36:34;5.90;;;2.70;;
505;SDS011;551;48.524;9.056;2022-10-16T01:39:10;5.30;;;2.10;;
505;SDS011;551;48.524;9.056;2022-10-16T01:41:38;2.30;;;2.07;;
505;SDS011;551;48.524;9.056;2022-10-16T01:44:10;18.23;;;3.67;;
505;SDS011;551;48.524;9.056;2022-10-16T01:46:43;3.50;;;3.20;;
505;SDS011;551;48.524;9.056;2022-10-16T01:49:11;3.77;;;2.47;;
505;SDS011;551;48.524;9.056;2022-10-16T01:51:38;5.47;;;2.40;;
505;SDS011;551;48.524;9.056;2022-10-16T01:54:04;3.43;;;2.40;;
505;SDS011;551;48.524;9.056;2022-10-16T01:56:33;4.57;;;2.83;;
505;SDS011;551;48.524;9.056;2022-10-16T01:59:02;14.57;;;2.57;;
505;SDS011;551;48.524;9.056;2022-10-16T02:01:36;2.90;;;2.20;;
505;SDS011;551;48.524;9.056;2022-10-16T02:06:54;3.50;;;2.00;;
505;SDS011;551;48.524;9.056;2022-10-16T02:09:20;4.70;;;2.20;;
505;SDS011;551;48.524;9.056;2022-10-16T02:11:46;4.23;;;2.20;;
505;SDS011;551;48.524;9.056;2022-10-16T02:14:14;10.20;;;2.93;;
505;SDS011;551;48.524;9.056;2022-10-16T02:16:41;4.13;;;2.53;;
505;SDS011;551;48.524;9.056;2022-10-16T02:19:14;10.80;;;2.70;;
505;SDS011;551;48.524;9.056;2022-10-16T02:27:26;2.50;;;2.27;;
505;SDS011;551;48.524;9.056;2022-10-16T02:30:00;7.60;;;2.80;;
505;SDS011;551;48.524;9.056;2022-10-16T02:32:33;6.33;;;2.80;;
505;SDS011;551;48.524;9.056;2022-10-16T02:35:01;10.37;;;2.70;;
505;SDS011;551;48.524;9.056;2022-10-16T02:37:28;2.30;;;2.10;;
505;SDS011;551;48.524;9.056;2022-10-16T02:39:55;6.97;;;2.93;;
505;SDS011;551;48.524;9.056;2022-10-16T02:42:27;7.87;;;2.43;;
505;SDS011;551;48.524;9.056;2022-10-16T02:44:53;7.93;;;3.03;;
505;SDS011;551;48.524;9.056;2022-10-16T02:47:19;5.43;;;2.97;;
505;SDS011;551;48.524;9.056;2022-10-16T02:49:44;5.33;;;2.93;;
505;SDS011;551;48.524;9.056;2022-10-16T02:52:10;5.13;;;2.70;;
505;SDS011;551;48.524;9.056;2022-10-16T02:54:35;4.70;;;3.43;;
505;SDS011;551;48.524;9.056;2022-10-16T02:57:01;4.07;;;3.17;;
505;SDS011;551;48.524;9.056;2022-10-16T02:59:26;8.13;;;2.40;;
505;SDS011;551;48.524;9.056;2022-10-16T03:01:52;3.80;;;2.60;;
505;SDS011;551;48.524;9.056;2022-10-16T03:04:17;4.00;;;2.80;;
505;SDS011;551;48.524;9.056;2022-10-16T03:06:43;8.87;;;2.50;;
505;SDS011;551;48.524;9.056;2022-10-16T03:09:08;7.63;;;2.57;;
505;SDS011;551;48.524;9.056;2022-10-16T03:11:34;2.73;;;2.47;;
505;SDS011;551;48.524;9.056;2022-10-16T03:13:59;4.23;;;2.90;;
505;SDS011;551;48.524;9.056;2022-10-16T03:16:25;8.70;;;2.80;;
505;SDS011;551;48.524;9.056;2022-10-16T03:18:50;8.10;;;3.03;;
505;SDS011;551;48.524;9.056;2022-10-16T03:21:16;5.77;;;2.90;;
505;SDS011;551;48.524;9.056;2022-10-16T03:23:42;3.97;;;2.20;;
505;SDS011;551;48.524;9.056;2022-10-16T03:26:07;2.70;;;2.50;;
505;SDS011;551;48.524;9.056;2022-10-16T03:28:33;3.60;;;2.90;;
505;SDS011;551;48.524;9.056;2022-10-16T03:30:58;6.73;;;2.70;;
505;SDS011;551;48.524;9.056;2022-10-16T03:33:24;5.90;;;2.70;;
505;SDS011;551;48.524;9.056;2022-10-16T03:35:53;8.13;;;2.47;;
505;SDS011;551;48.524;9.056;2022-10-16T03:38:19;5.23;;;2.47;;
505;SDS011;551;48.524;9.056;2022-10-16T03:40:46;3.87;;;2.67;;
505;SDS011;551;48.524;9.056;2022-10-16T03:43:12;2.90;;;2.57;;
505;SDS011;551;48.524;9.056;2022-10-16T03:45:37;3.07;;;2.53;;
505;SDS011;551;48.524;9.056;2022-10-16T03:48:03;4.30;;;2.37;;
505;SDS011;551;48.524;9.056;2022-10-16T03:50:29;3.37;;;2.77;;
505;SDS011;551;48.524;9.056;2022-10-16T03:52:54;5.57;;;3.20;;
505;SDS011;551;48.524;9.056;2022-10-16T03:55:20;3.87;;;2.40;;
505;SDS011;551;48.524;9.056;2022-10-16T03:57:46;4.90;;;2.40;;
505;SDS011;551;48.524;9.056;2022-10-16T04:00:11;3.40;;;2.33;;
505;SDS011;551;48.524;9.056;2022-10-16T04:02:37;2.77;;;2.17;;
505;SDS011;551;48.524;9.056;2022-10-16T04:05:03;8.00;;;2.73;;
505;SDS011;551;48.524;9.056;2022-10-16T04:07:29;2.57;;;2.37;;
505;SDS011;551;48.524;9.056;2022-10-16T04:09:54;4.13;;;2.30;;
505;SDS011;551;48.524;9.056;2022-10-16T04:12:22;8.47;;;2.17;;
505;SDS011;551;48.524;9.056;2022-10-16T04:14:47;6.37;;;2.93;;
505;SDS011;551;48.524;9.056;2022-10-16T04:17:13;3.43;;;2.53;;
505;SDS011;551;48.524;9.056;2022-10-16T04:19:38;4.23;;;2.50;;
505;SDS011;551;48.524;9.056;2022-10-16T04:22:04;7.23;;;2.47;;
505;SDS011;551;48.524;9.056;2022-10-16T04:24:29;14.23;;;2.50;;
505;SDS011;551;48.524;9.056;2022-10-16T04:26:55;3.30;;;2.30;;
505;SDS011;551;48.524;9.056;2022-10-16T04:29:20;5.13;;;2.97;;
505;SDS011;551;48.524;9.056;2022-10-16T04:31:46;7.33;;;2.47;;
505;SDS011;551;48.524;9.056;2022-10-16T04:34:11;8.53;;;2.47;;
505;SDS011;551;48.524;9.056;2022-10-16T04:36:37;4.97;;;2.50;;
505;SDS011;551;48.524;9.056;2022-10-16T04:39:02;4.50;;;2.50;;
505;SDS011;551;48.524;9.056;2022-10-16T04:41:28;2.73;;;2.00;;
505;SDS011;551;48.524;9.056;2022-10-16T04:43:53;9.23;;;2.50;;
505;SDS011;551;48.524;9.056;2022-10-16T04:46:19;3.30;;;2.20;;
505;SDS011;551;48.524;9.056;2022-10-16T04:48:44;6.83;;;2.23;;
505;SDS011;551;48.524;9.056;2022-10-16T04:51:11;3.23;;;2.70;;
505;SDS011;551;48.524;9.056;2022-10-16T04:53:37;8.70;;;2.57;;
505;SDS011;551;48.524;9.056;2022-10-16T04:56:02;4.50;;;2.53;;
505;SDS011;551;48.524;9.056;2022-10-16T04:58:28;3.03;;;2.30;;
505;SDS011;551;48.524;9.056;2022-10-16T05:00:54;5.43;;;2.27;;
505;SDS011;551;48.524;9.056;2022-10-16T05:03:19;3.20;;;2.27;;
505;SDS011;551;48.524;9.056;2022-10-16T05:05:45;5.83;;;2.30;;
505;SDS011;551;48.524;9.056;2022-10-16T05:08:12;6.80;;;3.40;;
505;SDS011;551;48.524;9.056;2022-10-16T05:10:38;5.23;;;3.10;;
505;SDS011;551;48.524;9.056;2022-10-16T05:13:04;4.37;;;2.10;;
505;SDS011;551;48.524;9.056;2022-10-16T05:15:29;6.13;;;2.50;;
505;SDS011;551;48.524;9.056;2022-10-16T05:17:55;5.17;;;2.53;;
505;SDS011;551;48.524;9.056;2022-10-16T05:20:21;4.50;;;3.00;;
505;SDS011;551;48.524;9.056;2022-10-16T05:22:47;6.50;;;2.50;;
505;SDS011;551;48.524;9.056;2022-10-16T05:25:12;14.33;;;3.57;;
505;SDS011;551;48.524;9.056;2022-10-16T05:27:38;3.37;;;2.73;;
505;SDS011;551;48.524;9.056;2022-10-16T05:30:04;6.50;;;3.13;;
505;SDS011;551;48.524;9.056;2022-10-16T05:32:30;5.20;;;2.60;;
505;SDS011;551;48.524;9.056;2022-10-16T05:34:55;2.00;;;1.90;;
505;SDS011;551;48.524;9.056;2022-10-16T05:37:21;3.90;;;2.90;;
505;SDS011;551;48.524;9.056;2022-10-16T05:39:46;4.23;;;2.87;;
505;SDS011;551;48.524;9.056;2022-10-16T05:42:12;8.07;;;3.20;;
505;SDS011;551;48.524;9.056;2022-10-16T05:44:37;3.40;;;2.70;;
505;SDS011;551;48.524;9.056;2022-10-16T05:47:03;4.23;;;3.27;;
505;SDS011;551;48.524;9.056;2022-10-16T05:49:29;6.90;;;3.00;;
505;SDS011;551;48.524;9.056;2022-10-16T05:51:55;4.30;;;2.53;;
505;SDS011;551;48.524;9.056;2022-10-16T05:54:20;6.60;;;2.70;;
505;SDS011;551;48.524;9.056;2022-10-16T05:56:46;7.03;;;3.03;;
505;SDS011;551;48.524;9.056;2022-10-16T05:59:11;8.33;;;3.20;;
505;SDS011;551;48.524;9.056;2022-10-16T06:01:40;4.90;;;3.10;;
505;SDS011;551;48.524;9.056;2022-10-16T06:04:05;30.53;;;4.10;;
505;SDS011;551;48.524;9.056;2022-10-16T06:06:31;8.67;;;2.73;;
505;SDS011;551;48.524;9.056;2022-10-16T06:08:56;2.73;;;2.53;;
505;SDS011;551;48.524;9.056;2022-10-16T06:11:24;6.50;;;2.97;;
505;SDS011;551;48.524;9.056;2022-10-16T06:13:51;4.97;;;2.53;;
505;SDS011;551;48.524;9.056;2022-10-16T06:16:18;5.50;;;3.10;;
505;SDS011;551;48.524;9.056;2022-10-16T06:18:46;6.10;;;2.30;;
505;SDS011;551;48.524;9.056;2022-10-16T06:21:16;4.60;;;3.30;;
505;SDS011;551;48.524;9.056;2022-10-16T06:23:42;3.50;;;3.10;;
505;SDS011;551;48.524;9.056;2022-10-16T06:26:09;3.90;;;2.80;;
505;SDS011;551;48.524;9.056;2022-10-16T06:28:36;6.90;;;3.00;;
505;SDS011;551;48.524;9.056;2022-10-16T06:31:03;5.30;;;3.27;;
505;SDS011;551;48.524;9.056;2022-10-16T06:33:30;7.83;;;3.30;;
505;SDS011;551;48.524;9.056;2022-10-16T06:38:35;6.53;;;3.20;;
505;SDS011;551;48.524;9.056;2022-10-16T06:41:02;4.40;;;2.80;;
505;SDS011;551;48.524;9.056;2022-10-16T06:43:29;3.23;;;2.70;;
505;SDS011;551;48.524;9.056;2022-10-16T06:46:00;4.70;;;2.97;;
505;SDS011;551;48.524;9.056;2022-10-16T06:48:27;6.13;;;2.67;;
505;SDS011;551;48.524;9.056;2022-10-16T06:50:57;2.43;;;2.23;;
505;SDS011;551;48.524;9.056;2022-10-16T06:53:28;5.17;;;2.60;;
505;SDS011;551;48.524;9.056;2022-10-16T06:55:56;9.80;;;3.77;;
505;SDS011;551;48.524;9.056;2022-10-16T06:58:22;7.50;;;2.70;;
505;SDS011;551;48.524;9.056;2022-10-16T07:00:48;3.20;;;2.80;;
505;SDS011;551;48.524;9.056;2022-10-16T07:03:14;3.80;;;3.07;;
505;SDS011;551;48.524;9.056;2022-10-16T07:05:40;5.63;;;2.80;;
505;SDS011;551;48.524;9.056;2022-10-16T07:08:06;4.87;;;2.43;;
505;SDS011;551;48.524;9.056;2022-10-16T07:10:32;7.00;;;2.83;;
505;SDS011;551;48.524;9.056;2022-10-16T07:12:58;3.70;;;2.00;;
505;SDS011;551;48.524;9.056;2022-10-16T07:15:24;5.90;;;1.90;;
505;SDS011;551;48.524;9.056;2022-10-16T07:17:50;6.13;;;2.53;;
505;SDS011;551;48.524;9.056;2022-10-16T07:20:17;4.07;;;2.50;;
505;SDS011;551;48.524;9.056;2022-10-16T07:22:42;4.33;;;2.30;;
505;SDS011;551;48.524;9.056;2022-10-16T07:25:08;4.77;;;2.83;;
505;SDS011;551;48.524;9.056;2022-10-16T07:27:34;6.73;;;2.97;;
505;SDS011;551;48.524;9.056;2022-10-16T07:29:59;7.37;;;3.70;;
505;SDS011;551;48.524;9.056;2022-10-16T07:32:25;5.33;;;3.70;;
505;SDS011;551;48.524;9.056;2022-10-16T07:34:51;4.13;;;3.30;;
505;SDS011;551;48.524;9.056;2022-10-16T07:37:17;3.13;;;2.83;;
505;SDS011;551;48.524;9.056;2022-10-16T07:39:43;7.13;;;2.77;;
505;SDS011;551;48.524;9.056;2022-10-16T07:42:08;4.43;;;2.77;;
505;SDS011;551;48.524;9.056;2022-10-16T07:44:34;5.83;;;2.73;;
505;SDS011;551;48.524;9.056;2022-10-16T07:47:00;7.07;;;3.03;;
505;SDS011;551;48.524;9.056;2022-10-16T07:49:26;7.63;;;3.77;;
505;SDS011;551;48.524;9.056;2022-10-16T07:51:52;4.13;;;2.77;;
505;SDS011;551;48.524;9.056;2022-10-16T07:54:17;5.10;;;2.90;;
505;SDS011;551;48.524;9.056;2022-10-16T07:56:43;7.20;;;3.57;;
505;SDS011;551;48.524;9.056;2022-10-16T07:59:08;4.60;;;2.60;;
505;SDS011;551;48.524;9.056;2022-10-16T08:01:34;5.23;;;2.67;;
505;SDS011;551;48.524;9.056;2022-10-16T08:03:59;4.17;;;2.83;;
505;SDS011;551;48.524;9.056;2022-10-16T08:06:25;7.80;;;3.30;;
505;SDS011;551;48.524;9.056;2022-10-16T08:08:50;2.70;;;2.50;;
505;SDS011;551;48.524;9.056;2022-10-16T08:11:16;4.33;;;2.87;;
505;SDS011;551;48.524;9.056;2022-10-16T08:13:42;4.57;;;2.60;;
505;SDS011;551;48.524;9.056;2022-10-16T08:16:07;4.63;;;2.67;;
505;SDS011;551;48.524;9.056;2022-10-16T08:18:35;6.50;;;6.00;;
505;SDS011;551;48.524;9.056;2022-10-16T08:21:01;6.40;;;3.70;;
505;SDS011;551;48.524;9.056;2022-10-16T08:23:27;5.10;;;2.70;;
505;SDS011;551;48.524;9.056;2022-10-16T08:25:53;3.73;;;2.67;;
505;SDS011;551;48.524;9.056;2022-10-16T08:28:20;4.10;;;2.90;;
505;SDS011;551;48.524;9.056;2022-10-16T08:30:46;5.67;;;2.53;;
505;SDS011;551;48.524;9.056;2022-10-16T08:33:11;3.33;;;3.13;;
505;SDS011;551;48.524;9.056;2022-10-16T08:35:37;6.23;;;3.00;;
505;SDS011;551;48.524;9.056;2022-10-16T08:38:03;3.67;;;3.23;;
505;SDS011;551;48.524;9.056;2022-10-16T08:40:30;4.80;;;3.20;;
505;SDS011;551;48.524;9.056;2022-10-16T08:45:38;6.50;;;5.20;;
505;SDS011;551;48.524;9.056;2022-10-16T08:51:06;10.00;;;5.73;;
505;SDS011;551;48.524;9.056;2022-10-16T08:53:44;8.93;;;5.50;;
505;SDS011;551;48.524;9.056;2022-10-16T08:56:15;5.40;;;4.37;;
505;SDS011;551;48.524;9.056;2022-10-16T08:58:42;7.30;;;4.30;;
505;SDS011;551;48.524;9.056;2022-10-16T09:01:13;3.93;;;2.90;;
505;SDS011;551;48.524;9.056;2022-10-16T09:03:51;8.10;;;3.27;;
505;SDS011;551;48.524;9.056;2022-10-16T09:08:59;2.73;;;2.40;;
505;SDS011;551;48.524;9.056;2022-10-16T09:17:37;4.97;;;3.37;;
505;SDS011;551;48.524;9.056;2022-10-16T09:20:16;3.33;;;2.10;;
505;SDS011;551;48.524;9.056;2022-10-16T09:25:30;2.93;;;2.60;;
505;SDS011;551;48.524;9.056;2022-10-16T09:27:57;5.00;;;2.70;;
505;SDS011;551;48.524;9.056;2022-10-16T09:30:23;4.07;;;2.30;;
505;SDS011;551;48.524;9.056;2022-10-16T09:32:52;2.70;;;2.50;;
505;SDS011;551;48.524;9.056;2022-10-16T09:35:24;5.50;;;2.03;;
505;SDS011;551;48.524;9.056;2022-10-16T09:37:56;2.70;;;2.50;;
505;SDS011;551;48.524;9.056;2022-10-16T09:40:26;3.27;;;2.20;;
505;SDS011;551;48.524;9.056;2022-10-16T09:45:54;4.53;;;2.00;;
505;SDS011;551;48.524;9.056;2022-10-16T09:48:21;2.40;;;2.20;;
505;SDS011;551;48.524;9.056;2022-10-16T09:51:00;4.53;;;2.33;;
505;SDS011;551;48.524;9.056;2022-10-16T09:53:41;2.83;;;2.57;;
505;SDS011;551;48.524;9.056;2022-10-16T09:56:09;3.70;;;2.30;;
505;SDS011;551;48.524;9.056;2022-10-16T09:58:41;3.03;;;2.33;;
505;SDS011;551;48.524;9.056;2022-10-16T10:01:11;7.57;;;2.20;;
505;SDS011;551;48.524;9.056;2022-10-16T10:03:40;6.23;;;2.90;;
505;SDS011;551;48.524;9.056;2022-10-16T10:06:26;3.30;;;2.13;;
505;SDS011;551;48.524;9.056;2022-10-16T10:08:54;4.70;;;2.50;;
505;SDS011;551;48.524;9.056;2022-10-16T10:14:13;5.70;;;1.93;;
505;SDS011;551;48.524;9.056;2022-10-16T10:16:46;2.23;;;2.13;;
505;SDS011;551;48.524;9.056;2022-10-16T10:19:16;3.80;;;2.30;;
505;SDS011;551;48.524;9.056;2022-10-16T10:21:46;2.83;;;2.63;;
505;SDS011;551;48.524;9.056;2022-10-16T10:24:13;2.70;;;2.10;;
505;SDS011;551;48.524;9.056;2022-10-16T10:26:41;2.17;;;2.00;;
505;SDS011;551;48.524;9.056;2022-10-16T10:29:39;2.80;;;2.43;;
505;SDS011;551;48.524;9.056;2022-10-16T10:32:13;4.77;;;2.27;;
505;SDS011;551;48.524;9.056;2022-10-16T10:37:36;2.20;;;2.00;;
505;SDS011;551;48.524;9.056;2022-10-16T10:43:17;2.90;;;1.80;;
505;SDS011;551;48.524;9.056;2022-10-16T10:46:00;3.93;;;1.90;;
505;SDS011;551;48.524;9.056;2022-10-16T10:51:31;1.90;;;1.80;;
505;SDS011;551;48.524;9.056;2022-10-16T10:56:57;2.60;;;2.40;;
505;SDS011;551;48.524;9.056;2022-10-16T10:59:42;2.10;;;1.90;;
505;SDS011;551;48.524;9.056;2022-10-16T11:08:00;2.10;;;1.80;;
505;SDS011;551;48.524;9.056;2022-10-16T11:10:30;2.33;;;1.83;;
505;SDS011;551;48.524;9.056;2022-10-16T11:13:19;2.00;;;1.90;;
505;SDS011;551;48.524;9.056;2022-10-16T11:16:19;2.10;;;2.00;;
505;SDS011;551;48.524;9.056;2022-10-16T11:21:39;2.17;;;2.07;;
505;SDS011;551;48.524;9.056;2022-10-16T11:24:30;2.13;;;2.03;;
505;SDS011;551;48.524;9.056;2022-10-16T11:27:19;4.10;;;2.00;;
505;SDS011;551;48.524;9.056;2022-10-16T11:29:56;2.40;;;1.97;;
505;SDS011;551;48.524;9.056;2022-10-16T11:32:30;3.57;;;2.20;;
505;SDS011;551;48.524;9.056;2022-10-16T11:35:02;2.40;;;1.77;;
505;SDS011;551;48.524;9.056;2022-10-16T11:37:38;2.53;;;2.17;;
505;SDS011;551;48.524;9.056;2022-10-16T11:40:50;2.30;;;2.10;;
505;SDS011;551;48.524;9.056;2022-10-16T11:43:11;1.83;;;1.70;;
505;SDS011;551;48.524;9.056;2022-10-16T11:45:51;1.90;;;1.80;;
505;SDS011;551;48.524;9.056;2022-10-16T11:51:00;4.03;;;1.93;;
505;SDS011;551;48.524;9.056;2022-10-16T11:53:37;3.93;;;1.90;;
505;SDS011;551;48.524;9.056;2022-10-16T11:56:24;2.43;;;1.70;;
505;SDS011;551;48.524;9.056;2022-10-16T11:58:59;2.17;;;2.07;;
505;SDS011;551;48.524;9.056;2022-10-16T12:01:38;3.87;;;1.77;;
505;SDS011;551;48.524;9.056;2022-10-16T12:04:19;4.00;;;1.70;;
505;SDS011;551;48.524;9.056;2022-10-16T12:06:58;1.87;;;1.77;;
505;SDS011;551;48.524;9.056;2022-10-16T12:09:34;2.50;;;2.13;;
505;SDS011;551;48.524;9.056;2022-10-16T12:12:03;2.10;;;2.00;;
505;SDS011;551;48.524;9.056;2022-10-16T12:14:34;2.03;;;1.90;;
505;SDS011;551;48.524;9.056;2022-10-16T12:17:27;2.53;;;2.37;;
505;SDS011;551;48.524;9.056;2022-10-16T12:22:47;2.77;;;1.70;;
505;SDS011;551;48.524;9.056;2022-10-16T12:25:20;1.90;;;1.80;;
505;SDS011;551;48.524;9.056;2022-10-16T12:27:56;2.27;;;1.73;;
505;SDS011;551;48.524;9.056;2022-10-16T12:30:25;2.13;;;2.03;;
505;SDS011;551;48.524;9.056;2022-10-16T12:32:53;2.70;;;2.10;;
505;SDS011;551;48.524;9.056;2022-10-16T12:35:21;2.50;;;2.30;;
505;SDS011;551;48.524;9.056;2022-10-16T12:37:52;2.07;;;1.90;;
505;SDS011;551;48.524;9.056;2022-10-16T12:40:54;2.00;;;1.90;;
505;SDS011;551;48.524;9.056;2022-10-16T12:43:25;2.30;;;2.10;;
505;SDS011;551;48.524;9.056;2022-10-16T12:46:04;3.30;;;2.20;;
505;SDS011;551;48.524;9.056;2022-10-16T12:48:46;2.73;;;2.30;;
505;SDS011;551;48.524;9.056;2022-10-16T12:59:21;3.13;;;2.23;;
505;SDS011;551;48.524;9.056;2022-10-16T13:07:56;2.00;;;1.90;;
505;SDS011;551;48.524;9.056;2022-10-16T13:10:41;2.30;;;2.10;;
505;SDS011;551;48.524;9.056;2022-10-16T13:16:23;3.33;;;2.20;;
505;SDS011;551;48.524;9.056;2022-10-16T13:24:42;2.40;;;2.20;;
505;SDS011;551;48.524;9.056;2022-10-16T13:30:02;3.10;;;2.23;;
505;SDS011;551;48.524;9.056;2022-10-16T13:32:48;2.67;;;2.47;;
505;SDS011;551;48.524;9.056;2022-10-16T13:35:26;5.17;;;2.47;;
505;SDS011;551;48.524;9.056;2022-10-16T13:38:12;2.53;;;2.33;;
505;SDS011;551;48.524;9.056;2022-10-16T13:40:50;2.30;;;2.10;;
505;SDS011;551;48.524;9.056;2022-10-16T13:43:43;2.57;;;2.37;;
505;SDS011;551;48.524;9.056;2022-10-16T13:46:13;2.50;;;2.30;;
505;SDS011;551;48.524;9.056;2022-10-16T13:48:39;2.60;;;2.40;;
505;SDS011;551;48.524;9.056;2022-10-16T13:51:19;3.50;;;2.13;;
505;SDS011;551;48.524;9.056;2022-10-16T13:53:45;4.53;;;2.77;;
505;SDS011;551;48.524;9.056;2022-10-16T13:56:15;3.47;;;2.97;;
505;SDS011;551;48.524;9.056;2022-10-16T13:58:42;2.93;;;2.73;;
505;SDS011;551;48.524;9.056;2022-10-16T14:01:19;3.47;;;2.30;;
505;SDS011;551;48.524;9.056;2022-10-16T14:03:48;5.63;;;3.30;;
505;SDS011;551;48.524;9.056;2022-10-16T14:06:15;2.47;;;1.90;;
505;SDS011;551;48.524;9.056;2022-10-16T14:08:44;4.40;;;2.57;;
505;SDS011;551;48.524;9.056;2022-10-16T14:11:13;4.00;;;2.80;;
505;SDS011;551;48.524;9.056;2022-10-16T14:13:46;3.20;;;2.70;;
505;SDS011;551;48.524;9.056;2022-10-16T14:16:22;5.40;;;2.90;;
505;SDS011;551;48.524;9.056;2022-10-16T14:21:23;2.60;;;2.40;;
505;SDS011;551;48.524;9.056;2022-10-16T14:23:49;2.67;;;2.30;;
505;SDS011;551;48.524;9.056;2022-10-16T14:26:16;2.20;;;2.00;;
505;SDS011;551;48.524;9.056;2022-10-16T14:28:44;3.33;;;2.50;;
505;SDS011;551;48.524;9.056;2022-10-16T14:31:30;4.20;;;2.60;;
505;SDS011;551;48.524;9.056;2022-10-16T14:33:58;2.83;;;2.60;;
505;SDS011;551;48.524;9.056;2022-10-16T14:36:24;3.03;;;2.83;;
505;SDS011;551;48.524;9.056;2022-10-16T14:38:59;6.13;;;2.80;;
505;SDS011;551;48.524;9.056;2022-10-16T14:41:28;3.60;;;3.30;;
505;SDS011;551;48.524;9.056;2022-10-16T14:43:56;8.13;;;3.03;;
505;SDS011;551;48.524;9.056;2022-10-16T14:46:31;2.87;;;2.20;;
505;SDS011;551;48.524;9.056;2022-10-16T14:49:02;2.60;;;2.40;;
505;SDS011;551;48.524;9.056;2022-10-16T14:51:38;2.50;;;2.30;;
505;SDS011;551;48.524;9.056;2022-10-16T14:54:09;2.70;;;2.50;;
505;SDS011;551;48.524;9.056;2022-10-16T14:57:13;3.53;;;2.80;;
505;SDS011;551;48.524;9.056;2022-10-16T14:59:41;3.67;;;2.47;;
505;SDS011;551;48.524;9.056;2022-10-16T15:04:53;2.97;;;2.30;;
505;SDS011;551;48.524;9.056;2022-10-16T15:07:19;2.53;;;2.20;;
505;SDS011;551;48.524;9.056;2022-10-16T15:09:44;2.13;;;2.03;;
505;SDS011;551;48.524;9.056;2022-10-16T15:12:10;6.23;;;2.73;;
505;SDS011;551;48.524;9.056;2022-10-16T15:14:35;3.63;;;3.33;;
505;SDS011;551;48.524;9.056;2022-10-16T15:17:01;5.23;;;3.57;;
505;SDS011;551;48.524;9.056;2022-10-16T15:19:27;4.60;;;3.00;;
505;SDS011;551;48.524;9.056;2022-10-16T15:21:52;3.93;;;3.13;;
505;SDS011;551;48.524;9.056;2022-10-16T15:24:18;3.40;;;2.43;;
505;SDS011;551;48.524;9.056;2022-10-16T15:26:43;2.90;;;2.70;;
505;SDS011;551;48.524;9.056;2022-10-16T15:29:11;3.10;;;2.40;;
505;SDS011;551;48.524;9.056;2022-10-16T15:31:36;3.30;;;2.80;;
505;SDS011;551;48.524;9.056;2022-10-16T15:34:02;2.50;;;2.40;;
505;SDS011;551;48.524;9.056;2022-10-16T15:36:31;2.47;;;2.27;;
505;SDS011;551;48.524;9.056;2022-10-16T15:39:01;2.47;;;2.27;;
505;SDS011;551;48.524;9.056;2022-10-16T15:41:27;4.70;;;2.77;;
505;SDS011;551;48.524;9.056;2022-10-16T15:43:52;6.13;;;3.57;;
505;SDS011;551;48.524;9.056;2022-10-16T15:46:19;2.63;;;2.43;;
505;SDS011;551;48.524;9.056;2022-10-16T15:48:46;6.17;;;2.70;;
505;SDS011;551;48.524;9.056;2022-10-16T15:51:13;6.10;;;3.30;;
505;SDS011;551;48.524;9.056;2022-10-16T15:53:39;3.47;;;3.17;;
505;SDS011;551;48.524;9.056;2022-10-16T15:56:05;3.03;;;2.83;;
505;SDS011;551;48.524;9.056;2022-10-16T15:58:32;5.43;;;3.20;;
505;SDS011;551;48.524;9.056;2022-10-16T16:00:58;4.87;;;3.80;;
505;SDS011;551;48.524;9.056;2022-10-16T16:03:29;4.17;;;3.83;;
505;SDS011;551;48.524;9.056;2022-10-16T16:05:55;4.13;;;3.73;;
505;SDS011;551;48.524;9.056;2022-10-16T16:08:21;4.13;;;3.50;;
505;SDS011;551;48.524;9.056;2022-10-16T16:13:45;6.47;;;3.60;;
505;SDS011;551;48.524;9.056;2022-10-16T16:16:12;11.60;;;4.87;;
505;SDS011;551;48.524;9.056;2022-10-16T16:18:39;4.77;;;3.90;;
505;SDS011;551;48.524;9.056;2022-10-16T16:21:05;11.80;;;4.70;;
505;SDS011;551;48.524;9.056;2022-10-16T16:23:31;5.93;;;4.83;;
505;SDS011;551;48.524;9.056;2022-10-16T16:26:04;5.37;;;4.37;;
505;SDS011;551;48.524;9.056;2022-10-16T16:28:36;3.77;;;3.30;;
505;SDS011;551;48.524;9.056;2022-10-16T16:31:05;9.23;;;4.53;;
505;SDS011;551;48.524;9.056;2022-10-16T16:33:31;9.50;;;4.40;;
505;SDS011;551;48.524;9.056;2022-10-16T16:35:58;10.20;;;4.23;;
505;SDS011;551;48.524;9.056;2022-10-16T16:38:25;5.73;;;4.17;;
505;SDS011;551;48.524;9.056;2022-10-16T16:40:51;4.97;;;4.00;;
505;SDS011;551;48.524;9.056;2022-10-16T16:43:17;5.40;;;3.60;;
505;SDS011;551;48.524;9.056;2022-10-16T16:45:43;4.20;;;3.80;;
505;SDS011;551;48.524;9.056;2022-10-16T16:48:08;8.60;;;4.47;;
505;SDS011;551;48.524;9.056;2022-10-16T16:50:37;5.30;;;4.13;;
505;SDS011;551;48.524;9.056;2022-10-16T16:53:02;11.43;;;4.93;;
505;SDS011;551;48.524;9.056;2022-10-16T16:55:28;12.20;;;4.93;;
505;SDS011;551;48.524;9.056;2022-10-16T16:57:54;6.10;;;3.90;;
505;SDS011;551;48.524;9.056;2022-10-16T17:00:19;8.60;;;4.90;;
505;SDS011;551;48.524;9.056;2022-10-16T17:02:47;8.10;;;4.70;;
505;SDS011;551;48.524;9.056;2022-10-16T17:05:14;8.80;;;4.40;;
505;SDS011;551;48.524;9.056;2022-10-16T17:07:39;6.80;;;5.13;;
505;SDS011;551;48.524;9.056;2022-10-16T17:10:05;8.50;;;5.27;;
505;SDS011;551;48.524;9.056;2022-10-16T17:12:34;14.00;;;6.73;;
505;SDS011;551;48.524;9.056;2022-10-16T17:15:00;11.40;;;5.70;;
505;SDS011;551;48.524;9.056;2022-10-16T17:17:26;8.40;;;5.23;;
505;SDS011;551;48.524;9.056;2022-10-16T17:19:52;9.80;;;5.80;;
505;SDS011;551;48.524;9.056;2022-10-16T17:22:17;7.77;;;5.20;;
505;SDS011;551;48.524;9.056;2022-10-16T17:24:43;8.10;;;5.53;;
505;SDS011;551;48.524;9.056;2022-10-16T17:27:09;6.93;;;5.30;;
505;SDS011;551;48.524;9.056;2022-10-16T17:29:36;7.60;;;5.83;;
505;SDS011;551;48.524;9.056;2022-10-16T17:32:02;6.73;;;5.30;;
505;SDS011;551;48.524;9.056;2022-10-16T17:34:28;6.30;;;5.03;;
505;SDS011;551;48.524;9.056;2022-10-16T17:36:53;6.27;;;4.73;;
505;SDS011;551;48.524;9.056;2022-10-16T17:39:19;9.00;;;5.13;;
505;SDS011;551;48.524;9.056;2022-10-16T17:41:45;8.43;;;6.13;;